Terminal Aerodrome Forecast
Issued by NWS Wilmington, OH

Home | Current Version | Previous Version | Text Only | Print | Product List | Glossary On
Versions: 1 2 3 4 5 6 7 8 9 10 11 12 13 14 15 16 17 18 19
000
FTUS41 KILN 271700
TAFILN
TAF
KILN 271729Z 2718/2818 15003KT P6SM FEW040 SCT070
     FM271900 31005KT P6SM BKN050
     FM280000 02004KT P6SM SCT250
     FM280800 03004KT 5SM BR BKN250
     FM281000 04004KT 2SM BR SCT250
     FM281300 06005KT P6SM BKN250=

USA.gov is the U.S. government's official web portal to all federal, state and local government web resources and services.